sensor_id;sensor_type;location;lat;lon;timestamp;P1;durP1;ratioP1;P2;durP2;ratioP2
42586;SDS011;28216;53.362;-6.288;2022-11-02T00:03:33;5.90;;;1.83;;
42586;SDS011;28216;53.362;-6.288;2022-11-02T00:05:58;7.40;;;1.70;;
42586;SDS011;28216;53.362;-6.288;2022-11-02T00:08:24;10.80;;;1.73;;
42586;SDS011;28216;53.362;-6.288;2022-11-02T00:10:49;11.07;;;1.80;;
42586;SDS011;28216;53.362;-6.288;2022-11-02T00:13:14;9.27;;;1.90;;
42586;SDS011;28216;53.362;-6.288;2022-11-02T00:15:40;10.13;;;1.77;;
42586;SDS011;28216;53.362;-6.288;2022-11-02T00:18:08;7.57;;;1.83;;
42586;SDS011;28216;53.362;-6.288;2022-11-02T00:20:36;9.38;;;1.85;;
42586;SDS011;28216;53.362;-6.288;2022-11-02T00:23:05;6.28;;;1.63;;
42586;SDS011;28216;53.362;-6.288;2022-11-02T00:25:31;4.53;;;1.65;;
42586;SDS011;28216;53.362;-6.288;2022-11-02T00:27:58;8.02;;;1.55;;
42586;SDS011;28216;53.362;-6.288;2022-11-02T00:30:23;6.35;;;1.85;;
42586;SDS011;28216;53.362;-6.288;2022-11-02T00:32:49;9.13;;;3.13;;
42586;SDS011;28216;53.362;-6.288;2022-11-02T00:35:15;6.40;;;1.70;;
42586;SDS011;28216;53.362;-6.288;2022-11-02T00:37:40;7.50;;;2.10;;
42586;SDS011;28216;53.362;-6.288;2022-11-02T00:40:06;10.38;;;1.77;;
42586;SDS011;28216;53.362;-6.288;2022-11-02T00:42:32;8.05;;;1.77;;
42586;SDS011;28216;53.362;-6.288;2022-11-02T00:44:57;12.98;;;1.60;;
42586;SDS011;28216;53.362;-6.288;2022-11-02T00:47:23;6.82;;;1.88;;
42586;SDS011;28216;53.362;-6.288;2022-11-02T00:49:48;8.65;;;1.88;;
42586;SDS011;28216;53.362;-6.288;2022-11-02T00:52:14;8.63;;;1.60;;
42586;SDS011;28216;53.362;-6.288;2022-11-02T00:54:39;5.93;;;1.40;;
42586;SDS011;28216;53.362;-6.288;2022-11-02T00:57:04;8.98;;;1.80;;
42586;SDS011;28216;53.362;-6.288;2022-11-02T00:59:30;6.30;;;1.40;;
42586;SDS011;28216;53.362;-6.288;2022-11-02T01:01:55;13.23;;;1.85;;
42586;SDS011;28216;53.362;-6.288;2022-11-02T01:04:21;9.00;;;1.80;;
42586;SDS011;28216;53.362;-6.288;2022-11-02T01:06:46;7.00;;;1.50;;
42586;SDS011;28216;53.362;-6.288;2022-11-02T01:09:12;6.82;;;1.88;;
42586;SDS011;28216;53.362;-6.288;2022-11-02T01:11:39;5.30;;;1.40;;
42586;SDS011;28216;53.362;-6.288;2022-11-02T01:14:05;5.38;;;1.42;;
42586;SDS011;28216;53.362;-6.288;2022-11-02T01:16:31;4.97;;;1.23;;
42586;SDS011;28216;53.362;-6.288;2022-11-02T01:18:57;7.57;;;2.10;;
42586;SDS011;28216;53.362;-6.288;2022-11-02T01:21:23;5.20;;;1.30;;
42586;SDS011;28216;53.362;-6.288;2022-11-02T01:23:48;7.10;;;1.50;;
42586;SDS011;28216;53.362;-6.288;2022-11-02T01:26:14;7.45;;;1.85;;
42586;SDS011;28216;53.362;-6.288;2022-11-02T01:28:40;5.97;;;1.48;;
42586;SDS011;28216;53.362;-6.288;2022-11-02T01:31:06;8.23;;;1.80;;
42586;SDS011;28216;53.362;-6.288;2022-11-02T01:33:33;4.10;;;1.20;;
42586;SDS011;28216;53.362;-6.288;2022-11-02T01:36:01;11.52;;;1.63;;
42586;SDS011;28216;53.362;-6.288;2022-11-02T01:38:27;9.80;;;1.73;;
42586;SDS011;28216;53.362;-6.288;2022-11-02T01:40:53;5.65;;;1.40;;
42586;SDS011;28216;53.362;-6.288;2022-11-02T01:46:04;7.40;;;1.60;;
42586;SDS011;28216;53.362;-6.288;2022-11-02T01:51:11;5.63;;;1.40;;
42586;SDS011;28216;53.362;-6.288;2022-11-02T01:53:50;5.93;;;1.40;;
42586;SDS011;28216;53.362;-6.288;2022-11-02T01:56:19;6.18;;;1.40;;
42586;SDS011;28216;53.362;-6.288;2022-11-02T01:58:48;7.95;;;2.60;;
42586;SDS011;28216;53.362;-6.288;2022-11-02T02:01:18;9.57;;;2.83;;
42586;SDS011;28216;53.362;-6.288;2022-11-02T02:03:44;5.85;;;1.30;;
42586;SDS011;28216;53.362;-6.288;2022-11-02T02:06:12;4.93;;;1.67;;
42586;SDS011;28216;53.362;-6.288;2022-11-02T02:08:40;5.55;;;1.33;;
42586;SDS011;28216;53.362;-6.288;2022-11-02T02:13:57;4.32;;;1.23;;
42586;SDS011;28216;53.362;-6.288;2022-11-02T02:17:16;6.18;;;1.30;;
42586;SDS011;28216;53.362;-6.288;2022-11-02T02:30:28;5.68;;;1.30;;
42586;SDS011;28216;53.362;-6.288;2022-11-02T02:33:09;5.90;;;0.93;;
42586;SDS011;28216;53.362;-6.288;2022-11-02T02:35:42;3.47;;;1.00;;
42586;SDS011;28216;53.362;-6.288;2022-11-02T02:41:24;5.55;;;1.30;;
42586;SDS011;28216;53.362;-6.288;2022-11-02T02:44:12;7.55;;;1.20;;
42586;SDS011;28216;53.362;-6.288;2022-11-02T02:46:44;4.15;;;1.20;;
42586;SDS011;28216;53.362;-6.288;2022-11-02T02:49:17;6.50;;;1.10;;
42586;SDS011;28216;53.362;-6.288;2022-11-02T02:51:47;6.82;;;0.98;;
42586;SDS011;28216;53.362;-6.288;2022-11-02T02:54:18;5.07;;;1.27;;
42586;SDS011;28216;53.362;-6.288;2022-11-02T02:56:49;4.25;;;1.10;;
42586;SDS011;28216;53.362;-6.288;2022-11-02T02:59:22;4.88;;;1.02;;
42586;SDS011;28216;53.362;-6.288;2022-11-02T03:01:52;9.63;;;1.30;;
42586;SDS011;28216;53.362;-6.288;2022-11-02T03:04:20;4.85;;;1.13;;
42586;SDS011;28216;53.362;-6.288;2022-11-02T03:06:49;8.60;;;1.17;;
42586;SDS011;28216;53.362;-6.288;2022-11-02T03:12:02;8.57;;;1.35;;
42586;SDS011;28216;53.362;-6.288;2022-11-02T03:17:31;5.95;;;1.20;;
42586;SDS011;28216;53.362;-6.288;2022-11-02T03:23:00;4.72;;;1.50;;
42586;SDS011;28216;53.362;-6.288;2022-11-02T03:25:57;6.75;;;1.40;;
42586;SDS011;28216;53.362;-6.288;2022-11-02T03:28:46;6.05;;;1.40;;
42586;SDS011;28216;53.362;-6.288;2022-11-02T03:42:32;9.93;;;3.15;;
42586;SDS011;28216;53.362;-6.288;2022-11-02T03:45:04;8.48;;;1.83;;
42586;SDS011;28216;53.362;-6.288;2022-11-02T03:47:35;5.70;;;1.50;;
42586;SDS011;28216;53.362;-6.288;2022-11-02T03:50:03;5.85;;;1.60;;
42586;SDS011;28216;53.362;-6.288;2022-11-02T03:52:34;6.85;;;1.65;;
42586;SDS011;28216;53.362;-6.288;2022-11-02T03:55:03;4.75;;;1.33;;
42586;SDS011;28216;53.362;-6.288;2022-11-02T03:57:32;8.02;;;1.80;;
42586;SDS011;28216;53.362;-6.288;2022-11-02T04:00:34;7.75;;;1.75;;
42586;SDS011;28216;53.362;-6.288;2022-11-02T04:02:57;5.68;;;1.50;;
42586;SDS011;28216;53.362;-6.288;2022-11-02T04:05:34;6.55;;;1.25;;
42586;SDS011;28216;53.362;-6.288;2022-11-02T04:08:00;6.60;;;1.30;;
42586;SDS011;28216;53.362;-6.288;2022-11-02T04:10:45;8.65;;;1.60;;
42586;SDS011;28216;53.362;-6.288;2022-11-02T04:13:29;3.92;;;1.40;;
42586;SDS011;28216;53.362;-6.288;2022-11-02T04:16:13;6.10;;;1.60;;
42586;SDS011;28216;53.362;-6.288;2022-11-02T04:18:39;5.90;;;1.65;;
42586;SDS011;28216;53.362;-6.288;2022-11-02T04:21:24;7.40;;;1.90;;
42586;SDS011;28216;53.362;-6.288;2022-11-02T04:23:49;8.23;;;2.70;;
42586;SDS011;28216;53.362;-6.288;2022-11-02T04:26:33;6.50;;;1.60;;
42586;SDS011;28216;53.362;-6.288;2022-11-02T04:28:59;6.57;;;1.52;;
42586;SDS011;28216;53.362;-6.288;2022-11-02T04:31:24;7.07;;;1.77;;
42586;SDS011;28216;53.362;-6.288;2022-11-02T04:33:50;8.60;;;2.00;;
42586;SDS011;28216;53.362;-6.288;2022-11-02T04:36:16;7.53;;;2.63;;
42586;SDS011;28216;53.362;-6.288;2022-11-02T04:38:41;7.65;;;1.95;;
42586;SDS011;28216;53.362;-6.288;2022-11-02T04:41:07;5.65;;;1.60;;
42586;SDS011;28216;53.362;-6.288;2022-11-02T04:43:52;19.07;;;5.97;;
42586;SDS011;28216;53.362;-6.288;2022-11-02T04:46:18;6.75;;;2.00;;
42586;SDS011;28216;53.362;-6.288;2022-11-02T04:48:44;7.25;;;1.88;;
42586;SDS011;28216;53.362;-6.288;2022-11-02T04:51:10;13.75;;;4.30;;
42586;SDS011;28216;53.362;-6.288;2022-11-02T04:53:35;5.85;;;1.60;;
42586;SDS011;28216;53.362;-6.288;2022-11-02T04:56:01;10.80;;;2.55;;
42586;SDS011;28216;53.362;-6.288;2022-11-02T04:58:26;8.48;;;1.85;;
42586;SDS011;28216;53.362;-6.288;2022-11-02T05:00:52;8.43;;;1.60;;
42586;SDS011;28216;53.362;-6.288;2022-11-02T05:03:17;7.32;;;1.30;;
42586;SDS011;28216;53.362;-6.288;2022-11-02T05:05:43;7.35;;;1.95;;
42586;SDS011;28216;53.362;-6.288;2022-11-02T05:08:08;12.43;;;2.13;;
42586;SDS011;28216;53.362;-6.288;2022-11-02T05:10:34;9.75;;;1.80;;
42586;SDS011;28216;53.362;-6.288;2022-11-02T05:12:59;6.25;;;1.63;;
42586;SDS011;28216;53.362;-6.288;2022-11-02T05:15:25;8.48;;;2.08;;
42586;SDS011;28216;53.362;-6.288;2022-11-02T05:17:51;9.02;;;1.50;;
42586;SDS011;28216;53.362;-6.288;2022-11-02T05:20:16;10.00;;;1.73;;
42586;SDS011;28216;53.362;-6.288;2022-11-02T05:22:41;6.32;;;1.67;;
42586;SDS011;28216;53.362;-6.288;2022-11-02T05:25:08;6.63;;;1.55;;
42586;SDS011;28216;53.362;-6.288;2022-11-02T05:27:34;7.18;;;1.08;;
42586;SDS011;28216;53.362;-6.288;2022-11-02T05:29:59;7.97;;;1.50;;
42586;SDS011;28216;53.362;-6.288;2022-11-02T05:32:28;9.60;;;1.88;;
42586;SDS011;28216;53.362;-6.288;2022-11-02T05:34:53;11.10;;;1.55;;
42586;SDS011;28216;53.362;-6.288;2022-11-02T05:37:19;9.23;;;1.50;;
42586;SDS011;28216;53.362;-6.288;2022-11-02T05:39:44;7.13;;;1.65;;
42586;SDS011;28216;53.362;-6.288;2022-11-02T05:42:09;8.25;;;1.70;;
42586;SDS011;28216;53.362;-6.288;2022-11-02T05:44:35;7.55;;;1.33;;
42586;SDS011;28216;53.362;-6.288;2022-11-02T05:47:01;9.55;;;1.80;;
42586;SDS011;28216;53.362;-6.288;2022-11-02T05:49:27;7.10;;;1.67;;
42586;SDS011;28216;53.362;-6.288;2022-11-02T05:51:52;13.50;;;1.90;;
42586;SDS011;28216;53.362;-6.288;2022-11-02T05:54:19;6.97;;;1.75;;
42586;SDS011;28216;53.362;-6.288;2022-11-02T05:56:45;12.40;;;1.63;;
42586;SDS011;28216;53.362;-6.288;2022-11-02T05:59:10;10.43;;;1.90;;
42586;SDS011;28216;53.362;-6.288;2022-11-02T06:01:36;6.57;;;1.42;;
42586;SDS011;28216;53.362;-6.288;2022-11-02T06:04:01;8.77;;;1.90;;
42586;SDS011;28216;53.362;-6.288;2022-11-02T06:06:27;7.65;;;1.60;;
42586;SDS011;28216;53.362;-6.288;2022-11-02T06:08:52;7.18;;;1.88;;
42586;SDS011;28216;53.362;-6.288;2022-11-02T06:11:18;9.02;;;1.90;;
42586;SDS011;28216;53.362;-6.288;2022-11-02T06:13:47;10.20;;;1.88;;
42586;SDS011;28216;53.362;-6.288;2022-11-02T06:16:14;10.85;;;1.80;;
42586;SDS011;28216;53.362;-6.288;2022-11-02T06:18:40;9.10;;;1.90;;
42586;SDS011;28216;53.362;-6.288;2022-11-02T06:21:05;7.38;;;1.90;;
42586;SDS011;28216;53.362;-6.288;2022-11-02T06:23:31;9.07;;;2.20;;
42586;SDS011;28216;53.362;-6.288;2022-11-02T06:25:57;11.65;;;1.92;;
42586;SDS011;28216;53.362;-6.288;2022-11-02T06:28:24;6.85;;;1.70;;
42586;SDS011;28216;53.362;-6.288;2022-11-02T06:30:50;10.25;;;2.03;;
42586;SDS011;28216;53.362;-6.288;2022-11-02T06:33:16;8.98;;;1.58;;
42586;SDS011;28216;53.362;-6.288;2022-11-02T06:35:47;8.25;;;1.90;;
42586;SDS011;28216;53.362;-6.288;2022-11-02T06:38:16;16.20;;;1.92;;
42586;SDS011;28216;53.362;-6.288;2022-11-02T06:40:47;11.48;;;1.92;;
42586;SDS011;28216;53.362;-6.288;2022-11-02T06:43:18;8.85;;;1.63;;
42586;SDS011;28216;53.362;-6.288;2022-11-02T06:45:44;11.88;;;2.15;;
42586;SDS011;28216;53.362;-6.288;2022-11-02T06:48:10;9.73;;;1.83;;
42586;SDS011;28216;53.362;-6.288;2022-11-02T06:50:36;11.07;;;2.28;;
42586;SDS011;28216;53.362;-6.288;2022-11-02T06:53:01;10.88;;;2.45;;
42586;SDS011;28216;53.362;-6.288;2022-11-02T06:55:27;11.40;;;2.10;;
42586;SDS011;28216;53.362;-6.288;2022-11-02T06:57:52;13.02;;;2.50;;
42586;SDS011;28216;53.362;-6.288;2022-11-02T07:00:19;11.98;;;2.35;;
42586;SDS011;28216;53.362;-6.288;2022-11-02T07:02:45;17.92;;;2.78;;
42586;SDS011;28216;53.362;-6.288;2022-11-02T07:05:10;12.52;;;2.60;;
42586;SDS011;28216;53.362;-6.288;2022-11-02T07:07:39;14.98;;;2.78;;
42586;SDS011;28216;53.362;-6.288;2022-11-02T07:10:05;16.38;;;2.80;;
42586;SDS011;28216;53.362;-6.288;2022-11-02T07:12:34;20.58;;;3.53;;
42586;SDS011;28216;53.362;-6.288;2022-11-02T07:15:01;19.15;;;3.70;;
42586;SDS011;28216;53.362;-6.288;2022-11-02T07:17:27;13.63;;;2.75;;
42586;SDS011;28216;53.362;-6.288;2022-11-02T07:19:53;15.55;;;2.83;;
42586;SDS011;28216;53.362;-6.288;2022-11-02T07:22:20;17.70;;;2.88;;
42586;SDS011;28216;53.362;-6.288;2022-11-02T07:24:46;13.60;;;2.88;;
42586;SDS011;28216;53.362;-6.288;2022-11-02T07:27:12;15.82;;;3.05;;
42586;SDS011;28216;53.362;-6.288;2022-11-02T07:29:38;13.48;;;2.50;;
42586;SDS011;28216;53.362;-6.288;2022-11-02T07:32:04;14.10;;;2.83;;
42586;SDS011;28216;53.362;-6.288;2022-11-02T07:34:33;18.50;;;3.58;;
42586;SDS011;28216;53.362;-6.288;2022-11-02T07:36:58;16.38;;;3.25;;
42586;SDS011;28216;53.362;-6.288;2022-11-02T07:39:24;17.45;;;3.17;;
42586;SDS011;28216;53.362;-6.288;2022-11-02T07:41:50;14.30;;;2.83;;
42586;SDS011;28216;53.362;-6.288;2022-11-02T07:44:15;18.75;;;3.40;;
42586;SDS011;28216;53.362;-6.288;2022-11-02T07:46:41;15.90;;;2.83;;
42586;SDS011;28216;53.362;-6.288;2022-11-02T07:49:06;19.77;;;3.30;;
42586;SDS011;28216;53.362;-6.288;2022-11-02T07:51:31;18.15;;;2.97;;
42586;SDS011;28216;53.362;-6.288;2022-11-02T07:53:57;21.13;;;3.97;;
42586;SDS011;28216;53.362;-6.288;2022-11-02T07:56:25;15.95;;;3.03;;
42586;SDS011;28216;53.362;-6.288;2022-11-02T07:58:50;21.45;;;3.47;;
42586;SDS011;28216;53.362;-6.288;2022-11-02T08:01:16;21.33;;;3.88;;
42586;SDS011;28216;53.362;-6.288;2022-11-02T08:03:41;14.45;;;2.40;;
42586;SDS011;28216;53.362;-6.288;2022-11-02T08:06:07;13.82;;;2.92;;
42586;SDS011;28216;53.362;-6.288;2022-11-02T08:08:32;15.88;;;3.13;;
42586;SDS011;28216;53.362;-6.288;2022-11-02T08:11:02;11.88;;;2.45;;
42586;SDS011;28216;53.362;-6.288;2022-11-02T08:13:30;9.55;;;1.95;;
42586;SDS011;28216;53.362;-6.288;2022-11-02T08:15:56;14.15;;;2.22;;
42586;SDS011;28216;53.362;-6.288;2022-11-02T08:18:23;10.82;;;2.45;;
42586;SDS011;28216;53.362;-6.288;2022-11-02T08:20:50;9.82;;;2.10;;
42586;SDS011;28216;53.362;-6.288;2022-11-02T08:23:17;11.55;;;2.70;;
42586;SDS011;28216;53.362;-6.288;2022-11-02T08:25:44;8.13;;;2.08;;
42586;SDS011;28216;53.362;-6.288;2022-11-02T08:28:16;10.68;;;2.20;;
42586;SDS011;28216;53.362;-6.288;2022-11-02T08:30:47;9.25;;;2.70;;
42586;SDS011;28216;53.362;-6.288;2022-11-02T08:33:13;11.48;;;2.83;;
42586;SDS011;28216;53.362;-6.288;2022-11-02T08:35:40;8.98;;;2.22;;
42586;SDS011;28216;53.362;-6.288;2022-11-02T08:38:07;16.27;;;3.22;;
42586;SDS011;28216;53.362;-6.288;2022-11-02T08:40:33;8.90;;;1.90;;
42586;SDS011;28216;53.362;-6.288;2022-11-02T08:43:00;12.15;;;2.28;;
42586;SDS011;28216;53.362;-6.288;2022-11-02T08:45:28;8.13;;;1.85;;
42586;SDS011;28216;53.362;-6.288;2022-11-02T08:47:55;10.38;;;1.67;;
42586;SDS011;28216;53.362;-6.288;2022-11-02T08:50:21;11.80;;;2.65;;
42586;SDS011;28216;53.362;-6.288;2022-11-02T08:52:48;9.13;;;2.28;;
42586;SDS011;28216;53.362;-6.288;2022-11-02T08:55:13;10.23;;;2.20;;
42586;SDS011;28216;53.362;-6.288;2022-11-02T08:57:55;13.07;;;2.08;;
42586;SDS011;28216;53.362;-6.288;2022-11-02T09:00:51;14.32;;;2.88;;
42586;SDS011;28216;53.362;-6.288;2022-11-02T09:03:17;13.50;;;2.60;;
42586;SDS011;28216;53.362;-6.288;2022-11-02T09:05:44;10.65;;;3.05;;
42586;SDS011;28216;53.362;-6.288;2022-11-02T09:08:12;20.35;;;3.35;;
42586;SDS011;28216;53.362;-6.288;2022-11-02T09:10:39;17.52;;;2.97;;
42586;SDS011;28216;53.362;-6.288;2022-11-02T09:13:05;21.20;;;3.75;;
42586;SDS011;28216;53.362;-6.288;2022-11-02T09:15:35;13.93;;;3.45;;
42586;SDS011;28216;53.362;-6.288;2022-11-02T09:18:02;18.63;;;3.50;;
42586;SDS011;28216;53.362;-6.288;2022-11-02T09:20:29;22.35;;;4.03;;
42586;SDS011;28216;53.362;-6.288;2022-11-02T09:22:55;17.17;;;3.15;;
42586;SDS011;28216;53.362;-6.288;2022-11-02T09:25:23;14.52;;;3.25;;
42586;SDS011;28216;53.362;-6.288;2022-11-02T09:27:52;14.95;;;3.80;;
42586;SDS011;28216;53.362;-6.288;2022-11-02T09:30:19;18.23;;;3.65;;
42586;SDS011;28216;53.362;-6.288;2022-11-02T09:32:55;12.85;;;2.83;;
42586;SDS011;28216;53.362;-6.288;2022-11-02T09:35:25;16.90;;;3.30;;
42586;SDS011;28216;53.362;-6.288;2022-11-02T09:37:53;15.38;;;2.80;;
42586;SDS011;28216;53.362;-6.288;2022-11-02T09:40:19;13.73;;;2.58;;
42586;SDS011;28216;53.362;-6.288;2022-11-02T09:43:08;12.30;;;2.70;;
42586;SDS011;28216;53.362;-6.288;2022-11-02T09:45:59;9.90;;;2.50;;
42586;SDS011;28216;53.362;-6.288;2022-11-02T09:51:51;8.63;;;2.40;;
42586;SDS011;28216;53.362;-6.288;2022-11-02T09:54:29;7.35;;;2.17;;
42586;SDS011;28216;53.362;-6.288;2022-11-02T09:57:04;10.75;;;2.33;;
42586;SDS011;28216;53.362;-6.288;2022-11-02T09:59:34;9.93;;;2.03;;
42586;SDS011;28216;53.362;-6.288;2022-11-02T10:02:01;6.97;;;1.60;;
42586;SDS011;28216;53.362;-6.288;2022-11-02T10:10:42;8.88;;;2.42;;
42586;SDS011;28216;53.362;-6.288;2022-11-02T10:18:43;7.88;;;2.10;;
42586;SDS011;28216;53.362;-6.288;2022-11-02T10:21:15;10.32;;;2.55;;
42586;SDS011;28216;53.362;-6.288;2022-11-02T10:30:47;9.85;;;2.38;;
42586;SDS011;28216;53.362;-6.288;2022-11-02T10:33:14;8.35;;;2.17;;
42586;SDS011;28216;53.362;-6.288;2022-11-02T10:51:22;5.72;;;2.00;;
42586;SDS011;28216;53.362;-6.288;2022-11-02T10:53:50;7.47;;;1.60;;
42586;SDS011;28216;53.362;-6.288;2022-11-02T10:56:35;7.32;;;2.17;;
42586;SDS011;28216;53.362;-6.288;2022-11-02T11:01:37;6.35;;;1.75;;
42586;SDS011;28216;53.362;-6.288;2022-11-02T11:04:28;9.55;;;2.25;;
42586;SDS011;28216;53.362;-6.288;2022-11-02T11:10:17;8.65;;;1.75;;
42586;SDS011;28216;53.362;-6.288;2022-11-02T11:12:42;5.15;;;1.60;;
42586;SDS011;28216;53.362;-6.288;2022-11-02T11:18:31;9.65;;;2.17;;
42586;SDS011;28216;53.362;-6.288;2022-11-02T11:21:01;6.65;;;2.10;;
42586;SDS011;28216;53.362;-6.288;2022-11-02T11:23:28;11.20;;;2.22;;
42586;SDS011;28216;53.362;-6.288;2022-11-02T11:38:16;8.35;;;2.13;;
42586;SDS011;28216;53.362;-6.288;2022-11-02T11:40:45;11.03;;;2.43;;
42586;SDS011;28216;53.362;-6.288;2022-11-02T11:43:17;7.88;;;2.13;;
42586;SDS011;28216;53.362;-6.288;2022-11-02T11:45:54;8.55;;;2.10;;
42586;SDS011;28216;53.362;-6.288;2022-11-02T11:48:33;5.40;;;2.00;;
42586;SDS011;28216;53.362;-6.288;2022-11-02T11:51:00;5.35;;;2.00;;
42586;SDS011;28216;53.362;-6.288;2022-11-02T11:53:27;10.00;;;2.00;;
42586;SDS011;28216;53.362;-6.288;2022-11-02T11:58:49;6.70;;;1.80;;
42586;SDS011;28216;53.362;-6.288;2022-11-02T12:01:15;7.25;;;2.00;;
42586;SDS011;28216;53.362;-6.288;2022-11-02T12:12:01;7.05;;;2.20;;
42586;SDS011;28216;53.362;-6.288;2022-11-02T12:17:21;3.85;;;1.40;;
42586;SDS011;28216;53.362;-6.288;2022-11-02T12:25:34;2.25;;;1.08;;
42586;SDS011;28216;53.362;-6.288;2022-11-02T12:33:56;2.67;;;1.00;;
42586;SDS011;28216;53.362;-6.288;2022-11-02T12:36:51;1.27;;;0.88;;
42586;SDS011;28216;53.362;-6.288;2022-11-02T12:42:34;3.22;;;1.02;;
42586;SDS011;28216;53.362;-6.288;2022-11-02T12:47:38;2.25;;;1.00;;
42586;SDS011;28216;53.362;-6.288;2022-11-02T12:55:16;6.85;;;1.88;;
42586;SDS011;28216;53.362;-6.288;2022-11-02T12:57:48;4.97;;;1.50;;
42586;SDS011;28216;53.362;-6.288;2022-11-02T13:00:17;6.82;;;1.90;;
42586;SDS011;28216;53.362;-6.288;2022-11-02T13:02:58;8.15;;;2.10;;
42586;SDS011;28216;53.362;-6.288;2022-11-02T13:05:33;10.60;;;2.20;;
42586;SDS011;28216;53.362;-6.288;2022-11-02T13:10:43;8.88;;;2.38;;
42586;SDS011;28216;53.362;-6.288;2022-11-02T13:13:15;8.93;;;2.30;;
42586;SDS011;28216;53.362;-6.288;2022-11-02T13:15:45;10.40;;;2.70;;
42586;SDS011;28216;53.362;-6.288;2022-11-02T13:18:20;15.85;;;3.35;;
42586;SDS011;28216;53.362;-6.288;2022-11-02T13:20:51;17.25;;;3.38;;
42586;SDS011;28216;53.362;-6.288;2022-11-02T13:26:37;14.25;;;3.47;;
42586;SDS011;28216;53.362;-6.288;2022-11-02T13:29:20;17.15;;;4.45;;
42586;SDS011;28216;53.362;-6.288;2022-11-02T13:34:29;17.50;;;3.88;;
42586;SDS011;28216;53.362;-6.288;2022-11-02T13:40:05;18.55;;;3.80;;
42586;SDS011;28216;53.362;-6.288;2022-11-02T13:51:04;21.85;;;4.03;;
42586;SDS011;28216;53.362;-6.288;2022-11-02T13:53:42;21.42;;;4.43;;
42586;SDS011;28216;53.362;-6.288;2022-11-02T13:56:20;17.60;;;4.43;;
42586;SDS011;28216;53.362;-6.288;2022-11-02T13:58:52;26.83;;;4.35;;
42586;SDS011;28216;53.362;-6.288;2022-11-02T14:01:39;22.05;;;4.65;;
42586;SDS011;28216;53.362;-6.288;2022-11-02T14:04:09;20.77;;;4.28;;
42586;SDS011;28216;53.362;-6.288;2022-11-02T14:06:43;21.85;;;4.30;;
42586;SDS011;28216;53.362;-6.288;2022-11-02T14:09:27;25.05;;;5.20;;
42586;SDS011;28216;53.362;-6.288;2022-11-02T14:12:11;20.88;;;4.70;;
42586;SDS011;28216;53.362;-6.288;2022-11-02T14:14:36;28.23;;;4.78;;
42586;SDS011;28216;53.362;-6.288;2022-11-02T14:17:10;23.65;;;5.15;;
42586;SDS011;28216;53.362;-6.288;2022-11-02T14:22:10;26.30;;;5.05;;
42586;SDS011;28216;53.362;-6.288;2022-11-02T14:35:13;24.65;;;5.10;;
42586;SDS011;28216;53.362;-6.288;2022-11-02T14:37:48;22.98;;;4.88;;
42586;SDS011;28216;53.362;-6.288;2022-11-02T14:40:46;31.45;;;5.32;;
42586;SDS011;28216;53.362;-6.288;2022-11-02T14:46:31;28.65;;;5.25;;
42586;SDS011;28216;53.362;-6.288;2022-11-02T14:49:25;21.55;;;4.65;;
42586;SDS011;28216;53.362;-6.288;2022-11-02T14:54:28;25.88;;;5.13;;
42586;SDS011;28216;53.362;-6.288;2022-11-02T14:57:13;25.10;;;4.60;;
42586;SDS011;28216;53.362;-6.288;2022-11-02T14:59:43;26.13;;;5.03;;
42586;SDS011;28216;53.362;-6.288;2022-11-02T15:02:14;28.52;;;5.05;;
42586;SDS011;28216;53.362;-6.288;2022-11-02T15:04:56;27.15;;;5.35;;
42586;SDS011;28216;53.362;-6.288;2022-11-02T15:07:31;32.08;;;6.05;;
42586;SDS011;28216;53.362;-6.288;2022-11-02T15:09:59;29.63;;;5.40;;
42586;SDS011;28216;53.362;-6.288;2022-11-02T15:12:37;30.60;;;5.53;;
42586;SDS011;28216;53.362;-6.288;2022-11-02T15:17:57;21.77;;;4.47;;
42586;SDS011;28216;53.362;-6.288;2022-11-02T15:22:58;30.60;;;4.85;;
42586;SDS011;28216;53.362;-6.288;2022-11-02T15:25:35;22.27;;;4.53;;
42586;SDS011;28216;53.362;-6.288;2022-11-02T15:30:39;28.80;;;5.55;;
42586;SDS011;28216;53.362;-6.288;2022-11-02T15:33:24;34.67;;;5.57;;
42586;SDS011;28216;53.362;-6.288;2022-11-02T15:35:59;24.15;;;5.05;;
42586;SDS011;28216;53.362;-6.288;2022-11-02T15:38:26;23.15;;;4.68;;
42586;SDS011;28216;53.362;-6.288;2022-11-02T15:46:26;22.10;;;4.22;;
42586;SDS011;28216;53.362;-6.288;2022-11-02T15:51:44;22.38;;;4.25;;
42586;SDS011;28216;53.362;-6.288;2022-11-02T16:02:20;20.77;;;4.72;;
42586;SDS011;28216;53.362;-6.288;2022-11-02T16:04:57;23.48;;;4.45;;
42586;SDS011;28216;53.362;-6.288;2022-11-02T16:07:25;24.23;;;4.35;;
42586;SDS011;28216;53.362;-6.288;2022-11-02T16:09:52;20.85;;;4.70;;
42586;SDS011;28216;53.362;-6.288;2022-11-02T16:12:18;23.85;;;5.00;;
42586;SDS011;28216;53.362;-6.288;2022-11-02T16:15:07;27.15;;;5.10;;
42586;SDS011;28216;53.362;-6.288;2022-11-02T16:17:33;24.23;;;4.57;;
42586;SDS011;28216;53.362;-6.288;2022-11-02T16:22:56;27.80;;;4.88;;
42586;SDS011;28216;53.362;-6.288;2022-11-02T16:28:14;24.25;;;4.68;;
42586;SDS011;28216;53.362;-6.288;2022-11-02T16:30:41;21.75;;;4.25;;
42586;SDS011;28216;53.362;-6.288;2022-11-02T16:33:16;22.30;;;5.18;;
42586;SDS011;28216;53.362;-6.288;2022-11-02T16:35:44;27.50;;;5.30;;
42586;SDS011;28216;53.362;-6.288;2022-11-02T16:38:38;27.40;;;5.13;;
42586;SDS011;28216;53.362;-6.288;2022-11-02T16:41:06;23.20;;;5.50;;
42586;SDS011;28216;53.362;-6.288;2022-11-02T16:43:36;21.92;;;4.28;;
42586;SDS011;28216;53.362;-6.288;2022-11-02T16:46:07;18.10;;;4.45;;
42586;SDS011;28216;53.362;-6.288;2022-11-02T16:48:40;17.38;;;3.88;;
42586;SDS011;28216;53.362;-6.288;2022-11-02T16:51:47;15.45;;;3.80;;
42586;SDS011;28216;53.362;-6.288;2022-11-02T16:54:24;21.95;;;4.07;;
42586;SDS011;28216;53.362;-6.288;2022-11-02T16:56:54;18.85;;;3.15;;
42586;SDS011;28216;53.362;-6.288;2022-11-02T17:00:21;17.60;;;3.97;;
42586;SDS011;28216;53.362;-6.288;2022-11-02T17:02:36;13.57;;;3.53;;
42586;SDS011;28216;53.362;-6.288;2022-11-02T17:05:04;17.77;;;3.30;;
42586;SDS011;28216;53.362;-6.288;2022-11-02T17:08:03;14.77;;;3.58;;
42586;SDS011;28216;53.362;-6.288;2022-11-02T17:10:34;15.40;;;2.92;;
42586;SDS011;28216;53.362;-6.288;2022-11-02T17:13:02;11.68;;;2.58;;
42586;SDS011;28216;53.362;-6.288;2022-11-02T17:15:33;13.40;;;3.50;;
42586;SDS011;28216;53.362;-6.288;2022-11-02T17:20:32;14.55;;;3.40;;
42586;SDS011;28216;53.362;-6.288;2022-11-02T17:23:00;11.68;;;2.97;;
42586;SDS011;28216;53.362;-6.288;2022-11-02T17:25:36;14.18;;;2.90;;
42586;SDS011;28216;53.362;-6.288;2022-11-02T17:33:51;16.55;;;3.40;;
42586;SDS011;28216;53.362;-6.288;2022-11-02T17:39:14;14.05;;;3.28;;
42586;SDS011;28216;53.362;-6.288;2022-11-02T17:41:44;13.02;;;3.30;;
42586;SDS011;28216;53.362;-6.288;2022-11-02T17:44:35;16.98;;;3.85;;
42586;SDS011;28216;53.362;-6.288;2022-11-02T17:47:00;23.15;;;4.03;;
42586;SDS011;28216;53.362;-6.288;2022-11-02T17:49:25;13.00;;;3.63;;
42586;SDS011;28216;53.362;-6.288;2022-11-02T17:51:51;16.15;;;3.60;;
42586;SDS011;28216;53.362;-6.288;2022-11-02T17:54:17;11.85;;;2.75;;
42586;SDS011;28216;53.362;-6.288;2022-11-02T17:56:48;16.30;;;3.63;;
42586;SDS011;28216;53.362;-6.288;2022-11-02T17:59:20;13.60;;;3.45;;
42586;SDS011;28216;53.362;-6.288;2022-11-02T18:01:45;10.88;;;3.00;;
42586;SDS011;28216;53.362;-6.288;2022-11-02T18:04:11;10.80;;;3.00;;
42586;SDS011;28216;53.362;-6.288;2022-11-02T18:09:58;10.85;;;3.65;;
42586;SDS011;28216;53.362;-6.288;2022-11-02T18:12:23;9.15;;;3.20;;
42586;SDS011;28216;53.362;-6.288;2022-11-02T18:14:49;14.90;;;2.80;;
42586;SDS011;28216;53.362;-6.288;2022-11-02T18:17:14;13.18;;;3.20;;
42586;SDS011;28216;53.362;-6.288;2022-11-02T18:19:40;11.73;;;2.60;;
42586;SDS011;28216;53.362;-6.288;2022-11-02T18:22:08;11.07;;;2.75;;
42586;SDS011;28216;53.362;-6.288;2022-11-02T18:24:36;10.60;;;2.67;;
42586;SDS011;28216;53.362;-6.288;2022-11-02T18:27:01;11.60;;;2.95;;
42586;SDS011;28216;53.362;-6.288;2022-11-02T18:29:26;14.20;;;3.80;;